createdAt,value
2023-02-04T00:01:52.021Z,5.50
2023-02-04T00:05:53.515Z,4.65
2023-02-04T00:09:57.175Z,5.88
2023-02-04T00:13:58.698Z,5.32
2023-02-04T00:18:00.163Z,4.57
2023-02-04T00:22:03.784Z,4.38
2023-02-04T00:26:05.583Z,3.47
2023-02-04T00:30:10.263Z,3.85
2023-02-04T00:34:11.733Z,3.72
2023-02-04T00:38:15.677Z,2.92
2023-02-04T00:42:17.427Z,3.25
2023-02-04T00:46:19.051Z,3.00
2023-02-04T00:50:20.632Z,3.45
2023-02-04T00:54:25.638Z,3.08
2023-02-04T00:58:27.196Z,2.85
2023-02-04T01:02:28.877Z,2.97
2023-02-04T01:06:30.456Z,3.83
2023-02-04T01:10:37.455Z,4.13
2023-02-04T01:14:39.147Z,3.65
2023-02-04T01:18:40.674Z,4.78
2023-02-04T01:22:42.085Z,4.95
2023-02-04T01:26:43.521Z,6.75
2023-02-04T01:30:50.739Z,2.92
2023-02-04T01:34:52.179Z,3.22
2023-02-04T01:38:54.128Z,2.28
2023-02-04T01:42:57.075Z,2.78
2023-02-04T01:47:01.657Z,2.38
2023-02-04T01:51:06.485Z,2.00
2023-02-04T01:55:19.667Z,1.70
2023-02-04T01:59:21.839Z,1.63
2023-02-04T02:03:23.376Z,1.35
2023-02-04T02:07:24.887Z,2.28
2023-02-04T02:11:29.650Z,1.88
2023-02-04T02:15:31.481Z,1.80
2023-02-04T02:19:36.558Z,1.75
2023-02-04T02:23:57.283Z,1.65
2023-02-04T02:28:11.604Z,1.55
2023-02-04T02:32:14.736Z,2.13
2023-02-04T02:36:20.014Z,1.95
2023-02-04T02:40:21.851Z,1.80
2023-02-04T02:44:24.176Z,1.50
2023-02-04T02:48:29.409Z,1.85
2023-02-04T02:52:35.784Z,1.50
2023-02-04T02:56:37.398Z,1.67
2023-02-04T03:00:41.768Z,2.28
2023-02-04T03:04:48.405Z,2.42
2023-02-04T03:09:04.893Z,3.83
2023-02-04T03:13:16.111Z,2.03
2023-02-04T03:17:17.670Z,2.15
2023-02-04T03:21:24.170Z,1.92
2023-02-04T03:25:34.475Z,2.25
2023-02-04T03:29:43.329Z,2.20
2023-02-04T03:33:47.745Z,2.58
2023-02-04T03:37:50.495Z,2.55
2023-02-04T03:42:01.833Z,2.60
2023-02-04T03:46:03.656Z,2.40
2023-02-04T03:50:09.893Z,2.97
2023-02-04T03:54:14.814Z,2.65
2023-02-04T03:58:20.966Z,2.90
2023-02-04T04:02:22.526Z,3.80
2023-02-04T04:06:24.179Z,3.28
2023-02-04T04:10:29.594Z,3.88
2023-02-04T04:14:31.486Z,3.03
2023-02-04T04:18:34.012Z,4.00
2023-02-04T04:22:35.627Z,2.83
2023-02-04T04:26:48.125Z,2.38
2023-02-04T04:30:49.998Z,2.25
2023-02-04T04:34:51.832Z,2.90
2023-02-04T04:38:53.368Z,3.13
2023-02-04T04:42:54.852Z,3.90
2023-02-04T04:47:09.546Z,3.90
2023-02-04T04:51:37.632Z,3.67
2023-02-04T04:55:39.208Z,3.97
2023-02-04T04:59:40.758Z,4.82
2023-02-04T05:03:58.965Z,4.50
2023-02-04T05:08:00.532Z,6.25
2023-02-04T05:12:02.922Z,5.75
2023-02-04T05:16:04.615Z,4.85
2023-02-04T05:20:06.459Z,6.70
2023-02-04T05:24:24.522Z,20.00
2023-02-04T05:28:41.200Z,15.38
2023-02-04T05:32:42.832Z,32.50
2023-02-04T05:36:56.944Z,20.42
2023-02-04T05:40:58.398Z,10.27
2023-02-04T05:44:59.916Z,9.35
2023-02-04T05:49:03.460Z,8.38
2023-02-04T05:53:06.548Z,10.90
2023-02-04T05:57:25.928Z,9.60
2023-02-04T06:01:41.299Z,11.80
2023-02-04T06:05:44.269Z,8.32
2023-02-04T06:09:45.963Z,6.22
2023-02-04T06:13:47.382Z,6.40
2023-02-04T06:17:48.937Z,6.32
2023-02-04T06:21:50.519Z,7.65
2023-02-04T06:25:56.873Z,6.70
2023-02-04T06:30:09.197Z,5.97
2023-02-04T06:34:10.786Z,7.57
2023-02-04T06:38:17.072Z,6.70
2023-02-04T06:42:18.599Z,6.85
2023-02-04T06:46:20.123Z,7.25
2023-02-04T06:50:30.207Z,8.20
2023-02-04T06:54:32.257Z,8.05
2023-02-04T06:58:33.925Z,8.88
2023-02-04T07:02:43.032Z,8.68
2023-02-04T07:06:51.720Z,7.70
2023-02-04T07:10:53.301Z,8.00
2023-02-04T07:14:54.954Z,6.75
2023-02-04T07:18:56.672Z,6.93
2023-02-04T07:22:58.205Z,7.75
2023-02-04T07:27:06.932Z,9.55
2023-02-04T07:36:58.728Z,7.95
2023-02-04T07:41:25.305Z,6.95
2023-02-04T07:45:27.258Z,7.47
2023-02-04T08:05:36.712Z,7.13
2023-02-04T08:09:38.555Z,7.20
2023-02-04T08:13:40.234Z,6.72
2023-02-04T08:17:41.933Z,6.80
2023-02-04T08:21:43.775Z,6.78
2023-02-04T08:25:45.625Z,7.20
2023-02-04T08:29:47.066Z,7.78
2023-02-04T08:33:50.879Z,7.20
2023-02-04T08:37:53.099Z,7.35
2023-02-04T08:41:54.649Z,6.93
2023-02-04T08:45:56.095Z,8.13
2023-02-04T08:49:57.503Z,7.32
2023-02-04T08:53:59.175Z,6.80
2023-02-04T08:58:01.400Z,6.40
2023-02-04T09:02:03.129Z,7.38
2023-02-04T09:06:05.544Z,5.63
2023-02-04T09:10:42.077Z,6.47
2023-02-04T09:14:44.127Z,5.83
2023-02-04T09:18:45.880Z,6.10
2023-02-04T09:22:48.200Z,5.50
2023-02-04T09:26:50.950Z,6.45
2023-02-04T09:30:52.502Z,4.50
2023-02-04T09:34:54.580Z,5.03
2023-02-04T09:38:56.637Z,4.90
2023-02-04T09:43:03.009Z,5.15
2023-02-04T09:47:04.415Z,4.68
2023-02-04T09:51:07.594Z,4.47
2023-02-04T09:55:20.262Z,3.47
2023-02-04T09:59:23.206Z,3.75
2023-02-04T10:03:24.919Z,3.90
2023-02-04T10:07:27.681Z,3.55
2023-02-04T10:11:33.364Z,5.00
2023-02-04T10:15:38.706Z,3.97
2023-02-04T10:20:23.557Z,3.55
2023-02-04T10:24:30.587Z,3.72
2023-02-04T10:28:36.970Z,4.32
2023-02-04T10:32:38.367Z,2.88
2023-02-04T10:36:42.796Z,4.05
2023-02-04T10:40:46.185Z,3.03
2023-02-04T10:44:48.307Z,3.20
2023-02-04T10:48:50.038Z,3.42
2023-02-04T10:52:55.510Z,4.82
2023-02-04T10:57:25.768Z,3.88
2023-02-04T11:01:28.898Z,3.17
2023-02-04T11:05:33.321Z,3.55
2023-02-04T11:09:34.883Z,4.05
2023-02-04T11:13:42.177Z,3.50
2023-02-04T11:17:44.014Z,3.65
2023-02-04T11:21:46.553Z,3.85
2023-02-04T11:25:48.831Z,4.00
2023-02-04T11:29:51.547Z,3.90
2023-02-04T11:34:32.177Z,3.78
2023-02-04T11:38:34.230Z,3.63
2023-02-04T11:42:40.820Z,2.85
2023-02-04T11:46:42.666Z,3.90
2023-02-04T11:50:55.413Z,3.72
2023-02-04T11:54:59.463Z,3.38
2023-02-04T11:59:01.113Z,4.50
2023-02-04T12:03:08.260Z,3.72
2023-02-04T12:07:13.140Z,4.43
2023-02-04T12:11:30.919Z,3.83
2023-02-04T12:15:37.451Z,4.68
2023-02-04T12:19:38.953Z,3.65
2023-02-04T12:23:42.519Z,3.38
2023-02-04T12:27:43.987Z,3.70
2023-02-04T12:31:45.676Z,3.35
2023-02-04T12:35:47.234Z,3.55
2023-02-04T12:39:49.072Z,4.22
2023-02-04T12:43:50.620Z,4.43
2023-02-04T12:47:52.048Z,3.40
2023-02-04T12:51:53.499Z,3.22
2023-02-04T12:55:57.007Z,3.55
2023-02-04T13:00:01.735Z,3.53
2023-02-04T13:04:03.399Z,3.50
2023-02-04T13:08:05.228Z,3.20
2023-02-04T13:12:07.041Z,3.08
2023-02-04T13:16:08.780Z,3.00
2023-02-04T13:20:10.825Z,5.10
2023-02-04T13:24:12.285Z,3.17
2023-02-04T13:28:14.588Z,2.15
2023-02-04T13:32:16.349Z,2.45
2023-02-04T13:36:18.706Z,2.58
2023-02-04T13:40:20.171Z,2.78
2023-02-04T13:44:21.664Z,3.25
2023-02-04T13:48:23.625Z,3.22
2023-02-04T13:52:25.024Z,4.07
2023-02-04T13:56:27.485Z,3.13
2023-02-04T14:00:30.348Z,3.72
2023-02-04T14:04:32.018Z,3.67
2023-02-04T14:08:34.689Z,3.90
2023-02-04T14:12:36.738Z,4.25
2023-02-04T14:16:39.329Z,4.68
2023-02-04T14:20:41.094Z,6.20
2023-02-04T14:24:42.944Z,6.40
2023-02-04T14:28:44.683Z,3.97
2023-02-04T14:32:46.863Z,3.13
2023-02-04T14:36:48.354Z,2.90
2023-02-04T14:40:58.972Z,2.92
2023-02-04T14:45:00.758Z,3.90
2023-02-04T14:49:02.512Z,3.55
2023-02-04T14:53:04.419Z,4.30
2023-02-04T14:57:10.235Z,4.45
2023-02-04T15:01:12.336Z,5.03
2023-02-04T15:05:15.612Z,3.83
2023-02-04T15:09:17.390Z,3.80
2023-02-04T15:13:18.904Z,3.65
2023-02-04T15:17:22.130Z,4.28
2023-02-04T15:21:23.574Z,6.53
2023-02-04T15:25:25.691Z,4.60
2023-02-04T15:29:27.401Z,5.47
2023-02-04T15:33:29.627Z,4.00
2023-02-04T15:37:31.090Z,4.25
2023-02-04T15:41:32.879Z,3.92
2023-02-04T15:45:41.191Z,4.13
2023-02-04T15:49:42.921Z,3.80
2023-02-04T15:53:44.339Z,6.88
2023-02-04T15:57:46.107Z,3.30
2023-02-04T16:01:47.692Z,3.88
2023-02-04T16:05:49.357Z,4.75
2023-02-04T16:09:51.000Z,5.80
2023-02-04T16:13:52.608Z,4.20
2023-02-04T16:17:56.450Z,19.35
2023-02-04T16:21:58.794Z,38.53
2023-02-04T16:26:00.488Z,16.67
2023-02-04T16:30:03.565Z,16.65
2023-02-04T16:34:05.065Z,4.43
2023-02-04T16:38:06.507Z,4.25
2023-02-04T16:42:09.032Z,3.50
2023-02-04T16:46:12.380Z,9.95
2023-02-04T16:50:14.022Z,4.68
2023-02-04T16:54:15.698Z,22.50
2023-02-04T16:58:17.251Z,7.28
2023-02-04T17:02:19.082Z,4.07
2023-02-04T17:06:20.412Z,3.90
2023-02-04T17:10:41.828Z,5.20
2023-02-04T17:14:43.544Z,12.85
2023-02-04T17:18:45.032Z,18.00
2023-02-04T17:22:47.451Z,13.18
2023-02-04T17:26:49.197Z,12.55
2023-02-04T17:30:50.654Z,6.15
2023-02-04T17:34:55.212Z,5.70
2023-02-04T17:39:23.838Z,5.38
2023-02-04T17:43:25.917Z,3.65
2023-02-04T17:47:27.649Z,4.47
2023-02-04T17:51:29.506Z,5.57
2023-02-04T17:55:31.548Z,5.28
2023-02-04T17:59:34.203Z,3.85
2023-02-04T18:03:36.214Z,3.60
2023-02-04T18:07:38.087Z,4.97
2023-02-04T18:11:40.640Z,4.35
2023-02-04T18:15:45.899Z,5.05
2023-02-04T18:19:47.665Z,4.50
2023-02-04T18:24:11.249Z,7.88
2023-02-04T18:28:15.889Z,6.72
2023-02-04T18:32:21.195Z,5.32
2023-02-04T18:36:23.523Z,4.57
2023-02-04T18:40:33.624Z,6.10
2023-02-04T18:44:40.738Z,6.35
2023-02-04T18:49:01.546Z,5.35
2023-02-04T18:53:21.959Z,7.78
2023-02-04T18:57:35.196Z,7.90
2023-02-04T19:01:39.237Z,11.02
2023-02-04T19:05:50.978Z,14.35
2023-02-04T19:09:53.144Z,14.25
2023-02-04T19:13:57.226Z,11.07
2023-02-04T19:18:00.793Z,9.43
2023-02-04T19:22:17.722Z,9.38
2023-02-04T19:26:30.610Z,9.00
2023-02-04T19:30:46.138Z,7.82
2023-02-04T19:34:48.627Z,9.15
2023-02-04T19:39:02.745Z,7.10
2023-02-04T19:43:23.092Z,8.77
2023-02-04T19:48:00.372Z,7.28
2023-02-04T19:56:35.427Z,9.45
2023-02-04T20:00:41.106Z,8.48
2023-02-04T20:04:44.273Z,9.65
2023-02-04T20:08:56.034Z,9.10
2023-02-04T20:13:11.111Z,9.73
2023-02-04T20:17:22.231Z,9.05
2023-02-04T20:21:25.608Z,9.48
2023-02-04T20:25:37.510Z,10.30
2023-02-04T20:29:39.158Z,10.10
2023-02-04T20:33:47.601Z,11.15
2023-02-04T20:37:54.586Z,12.95
2023-02-04T20:42:20.698Z,14.60
2023-02-04T20:46:25.368Z,10.23
2023-02-04T20:50:36.538Z,9.35
2023-02-04T20:54:38.198Z,10.02
2023-02-04T20:58:43.643Z,8.93
2023-02-04T21:02:45.375Z,10.95
2023-02-04T21:06:51.729Z,8.60
2023-02-04T21:10:53.522Z,7.40
2023-02-04T21:14:55.199Z,6.45
2023-02-04T21:18:57.278Z,6.68
2023-02-04T21:22:59.329Z,7.18
2023-02-04T21:27:00.992Z,6.47
2023-02-04T21:31:03.106Z,6.75
2023-02-04T21:35:04.778Z,6.90
2023-02-04T21:39:06.257Z,8.68
2023-02-04T21:43:08.938Z,9.43
2023-02-04T21:47:10.546Z,7.82
2023-02-04T21:51:13.123Z,8.10
2023-02-04T21:55:15.976Z,6.95
2023-02-04T21:59:19.666Z,7.28
2023-02-04T22:03:21.510Z,7.65
2023-02-04T22:07:23.052Z,9.82
2023-02-04T22:11:24.513Z,9.88
2023-02-04T22:15:28.304Z,8.98
2023-02-04T22:19:29.808Z,8.82
2023-02-04T22:23:31.463Z,11.93
2023-02-04T22:27:34.125Z,7.47
2023-02-04T22:32:00.389Z,7.18
2023-02-04T22:36:04.336Z,6.93
2023-02-04T22:40:08.231Z,8.52
2023-02-04T22:44:10.693Z,11.25
2023-02-04T22:48:12.906Z,9.48
2023-02-04T22:52:14.878Z,9.02
2023-02-04T22:56:16.906Z,7.45
2023-02-04T23:00:18.363Z,8.18
2023-02-04T23:04:20.275Z,6.75
2023-02-04T23:08:22.822Z,8.02
2023-02-04T23:12:24.299Z,8.98
2023-02-04T23:16:26.106Z,8.85
2023-02-04T23:20:27.924Z,8.00
2023-02-04T23:24:30.389Z,8.55
2023-02-04T23:28:32.091Z,6.65
2023-02-04T23:32:33.601Z,7.10
2023-02-04T23:36:36.594Z,6.43
2023-02-04T23:40:38.389Z,6.03
2023-02-04T23:44:39.820Z,7.05
2023-02-04T23:48:41.516Z,6.45
2023-02-04T23:52:43.468Z,6.40
2023-02-04T23:56:45.277Z,6.47
